Weather observations for the past three days for
Winona, Winona Municipal Airport-Max Conrad Field
Imperial (Metric)
Date Time (cdt) Wind (mph) Vis. (mi.) Weather Sky Cond. Temperature (ºF) Relative Humidity Wind Chill (°F) Heat Index (°F) Pressure Precipitation (in)
Air Dwpt 6 hour altimeter (in) sea level (mb) 1 hr 3 hr 6 hr
Max. Min.
07 23:35 Calm 10.00 Fair CLR 39.2 30.2 70% 29.85 0.0
07 23:15 Calm 10.00 Fair CLR 37.4 30.2 75% 29.86 0.0
07 22:55 Calm 10.00 Fair CLR 41 28.4 61% 29.86 0.0
07 22:35 Calm 10.00 Fair CLR 41 28.4 61% 29.86 0.0
07 22:15 Calm 10.00 Fair CLR 41 30.2 66% 29.86 0.0
07 21:55 Calm 10.00 Fair CLR 42.8 26.6 53% 29.85 0.0
07 21:35 Calm 10.00 Fair CLR 42.8 28.4 57% 29.85 0.0
07 21:15 Calm 10.00 Fair CLR 44.6 26.6 49% 29.85 0.0
07 20:55 Calm 10.00 Fair CLR 46.4 26.6 46% 29.85 0.0
07 20:35 Calm 10.00 Fair CLR 46.4 26.6 46% 29.84 0.0
07 20:15 Calm 10.00 Fair CLR 50 23 35% 29.84 0.0
07 19:55 NW 3 10.00 Fair CLR 51.8 21.2 30% 29.83 0.0
07 19:35 NW 5 10.00 Fair CLR 53.6 21.2 28% 29.83 0.0
07 19:15 NW 8 10.00 Fair CLR 53.6 19.4 26% 29.83 0.0
07 18:55 N 12 10.00 Fair CLR 55.4 21.2 26% 29.83 0.0
07 18:35 NW 10 10.00 Fair CLR 55.4 21.2 26% 29.83 0.0
07 18:15 N 6 10.00 Fair CLR 55.4 21.2 26% 29.83 0.0
07 17:55 NW 12 10.00 Fair CLR 55.4 19.4 24% 29.83 0.0
07 17:35 N 5 10.00 Fair CLR 55.4 19.4 24% 29.83 0.0
07 17:15 NW 9 10.00 Fair CLR 55.4 19.4 24% 29.83 0.0
07 16:55 N 9 10.00 Fair CLR 55.4 19.4 24% 29.83 0.0
07 16:35 N 9 G 16 10.00 Fair CLR 57.2 21.2 25% 29.83 0.0
07 16:15 N 12 G 18 10.00 Fair CLR 57.2 21.2 25% 29.84 0.0
07 15:55 N 12 G 18 10.00 Fair CLR 55.4 21.2 26% 29.84 0.0
07 15:35 N 10 10.00 Fair CLR 55.4 21.2 26% 29.85 0.0
07 15:15 N 10 G 17 10.00 Fair CLR 55.4 21.2 26% 29.85 0.0
07 14:55 N 7 G 17 10.00 Fair CLR 55.4 21.2 26% 29.85 0.0
07 14:35 N 9 G 18 10.00 Fair CLR 55.4 21.2 26% 29.85 0.0
07 14:15 NW 12 G 18 10.00 Fair CLR 55.4 23 28% 29.86 0.0
07 13:55 N 13 G 21 10.00 Fair CLR 55.4 23 28% 29.86 0.0
07 13:35 N 14 G 21 10.00 Fair CLR 53.6 23 30% 29.86 0.0
07 13:15 N 7 10.00 Fair CLR 53.6 26.6 35% 29.86 0.0
07 12:55 N 7 10.00 Fair CLR 53.6 28.4 38% 29.87 0.0
07 12:35 N 9 G 18 10.00 Fair CLR 51.8 28.4 41% 29.87 0.0
07 12:15 N 10 G 16 10.00 Fair CLR 51.8 28.4 41% 29.88 0.0
07 11:55 N 7 10.00 Fair CLR 51.8 28.4 41% 29.89 0.0
07 11:35 N 8 10.00 Fair CLR 50 28.4 43% 47 29.89 0.0
07 11:15 N 6 10.00 Fair CLR 50 30.2 47% 48 29.89 0.0
07 10:55 N 5 10.00 Fair CLR 50 28.4 43% 49 29.9 0.0
07 10:35 N 7 10.00 Partly Cloudy SCT040 SCT046 50 30.2 47% 48 29.9 0.0
07 10:15 NE 5 10.00 Partly Cloudy SCT035 SCT042 SCT090 46.4 32 57% 45 29.9 0.0
07 09:55 N 3 10.00 Partly Cloudy SCT039 SCT045 SCT095 46.4 32 57% 29.91 0.0
07 09:35 NW 5 10.00 Mostly Cloudy SCT038 SCT046 BKN070 44.6 33.8 66% 43 29.92 0.0
07 09:15 NW 5 10.00 Mostly Cloudy SCT036 BKN046 BKN080 44.6 33.8 66% 43 29.93 0.0
07 08:55 W 5 10.00 Partly Cloudy SCT026 SCT048 SCT080 42.8 33.8 71% 41 29.93 0.0
07 08:35 W 3 10.00 Light Rain SCT018 SCT024 SCT029 39.2 32 75% 29.94 0.0
07 08:15 Calm 10.00 Light Drizzle SCT020 SCT024 SCT031 37.4 32 81% 29.94 0.0
07 07:55 Calm 10.00 Partly Cloudy SCT039 SCT050 SCT055 37.4 32 81% 29.94 0.0
07 07:35 Calm 10.00 Partly Cloudy SCT050 SCT080 35.6 32 87% 29.94 0.0
07 07:15 Calm 10.00 Partly Cloudy SCT080 33.8 30.2 87% 29.94 0.0
07 06:55 Calm 10.00 Partly Cloudy SCT070 SCT080 32 30.2 93% 29.94 0.0
07 06:35 Calm 10.00 Fair CLR 32 28.4 87% 29.93 0.0
07 06:15 Calm 10.00 Fair CLR 32 28.4 87% 29.93 0.0
07 05:55 Calm 10.00 Fair CLR 32 28.4 87% 29.93 0.0
07 05:35 Calm 10.00 Fair CLR 30.2 26.6 86% 29.93 0.0
07 05:15 NW 3 10.00 Fair CLR 32 28.4 87% 29.94 0.0
07 04:55 Calm 10.00 Fair CLR 32 28.4 87% 29.94 0.0
07 04:35 Calm 10.00 Fair CLR 32 28.4 87% 29.94 0.0
07 04:15 Calm 10.00 Partly Cloudy SCT080 32 28.4 87% 29.94 0.0
07 03:55 Calm 10.00 Partly Cloudy SCT080 32 30.2 93% 29.95 0.0
07 03:35 Calm 10.00 Mostly Cloudy BKN080 32 28.4 87% 29.95 0.0
07 03:15 Calm 10.00 Mostly Cloudy BKN080 32 30.2 93% 29.95 0.0
07 02:55 Calm 10.00 Mostly Cloudy BKN080 32 28.4 87% 29.95 0.0
07 02:35 Calm 10.00 Mostly Cloudy BKN080 32 30.2 93% 29.95 0.0
07 02:15 Calm 10.00 Mostly Cloudy BKN080 32 28.4 87% 29.96 0.0
07 01:55 Calm 10.00 Partly Cloudy SCT080 32 28.4 87% 29.96 0.0
07 01:35 Calm 10.00 Mostly Cloudy BKN080 32 30.2 93% 29.97 0.0
07 01:15 Calm 10.00 Overcast OVC080 33.8 30.2 87% 29.97 0.0
07 00:55 Calm 10.00 Overcast OVC080 33.8 30.2 87% 29.97 0.0
07 00:35 Calm 10.00 Overcast OVC080 32 30.2 93% 29.98 0.0
07 00:15 Calm 10.00 Mostly Cloudy BKN080 32 28.4 87% 29.98 0.0
06 23:55 Calm 10.00 Partly Cloudy SCT080 32 28.4 87% 29.98 0.0
06 23:35 Calm 10.00 Fair CLR 32 30.2 93% 29.98 0.0
06 23:15 Calm 10.00 Fair CLR 33.8 30.2 87% 29.98 0.0
06 22:55 Calm 10.00 Fair CLR 33.8 30.2 87% 29.99 0.0
06 22:35 Calm 10.00 Fair CLR 35.6 28.4 75% 29.99 0.0
06 22:15 Calm 10.00 Fair CLR 33.8 26.6 75% 29.99 0.0
06 21:55 Calm 10.00 Fair CLR 35.6 28.4 75% 30 0.0
06 21:35 Calm 10.00 Partly Cloudy SCT060 37.4 30.2 75% 30.01 0.0
06 21:15 Calm 10.00 Mostly Cloudy BKN060 39.2 28.4 65% 30 0.0
06 20:55 Calm 10.00 Partly Cloudy SCT060 39.2 26.6 61% 30 0.0
06 20:35 Calm 10.00 Fair CLR 42.8 26.6 53% 30 0.0
06 20:15 Calm 10.00 Partly Cloudy SCT060 41 26.6 57% 30 0.0
06 19:55 NW 5 10.00 Partly Cloudy SCT060 42.8 26.6 53% 41 29.99 0.0
06 19:35 NW 6 10.00 Partly Cloudy SCT050 42.8 24.8 49% 40 29.99 0.0
06 19:15 W 8 10.00 Overcast OVC050 44.6 24.8 46% 41 30 0.0
06 18:55 NW 9 10.00 Mostly Cloudy BKN050 44.6 26.6 49% 40 29.99 0.0
06 18:35 W 9 10.00 Overcast OVC050 46.4 24.8 43% 42 29.99 0.0
06 18:15 W 8 G 17 10.00 Overcast OVC050 44.6 23 43% 41 30 0.0
06 17:55 W 10 G 21 10.00 Overcast OVC050 44.6 24.8 46% 40 30 0.0
06 17:35 NW 10 G 16 10.00 Overcast OVC050 44.6 23 43% 40 30 0.0
06 17:15 NW 9 10.00 Overcast OVC050 44.6 23 43% 40 30 0.0
06 16:55 NW 8 G 16 10.00 Overcast OVC050 44.6 23 43% 41 30 0.0
06 16:35 NW 8 10.00 Overcast OVC050 42.8 23 46% 39 30.01 0.0
06 16:15 W 10 10.00 Overcast OVC050 42.8 23 46% 38 30.01 0.0
06 15:55 W 10 10.00 Overcast OVC050 42.8 23 46% 38 30.01 0.0
06 15:35 W 10 10.00 Overcast OVC050 42.8 23 46% 38 30.01 0.0
06 15:15 W 6 10.00 Overcast OVC050 42.8 23 46% 40 30.02 0.0
06 14:55 W 12 G 16 10.00 Overcast OVC050 42.8 23 46% 37 30.01 0.0
06 14:35 NW 14 G 17 10.00 Overcast OVC050 42.8 23 46% 36 30.02 0.0
06 14:15 W 10 G 21 10.00 Overcast OVC060 42.8 23 46% 38 30.02 0.0
06 13:55 W 12 G 17 10.00 Overcast OVC060 42.8 23 46% 37 30.02 0.0
06 13:35 NW 15 G 21 10.00 Overcast OVC060 42.8 23 46% 36 30.02 0.0
06 13:15 NW 9 G 20 10.00 Overcast OVC060 44.6 23 43% 40 30.01 0.0
06 12:55 W 14 10.00 Overcast OVC060 44.6 23 43% 39 30.01 0.0
06 12:35 W 12 G 18 10.00 Overcast OVC060 44.6 23 43% 39 30.01 0.0
06 12:15 W 12 G 17 10.00 Overcast OVC060 44.6 23 43% 39 30.01 0.0
06 11:55 W 9 G 17 10.00 Overcast OVC050 44.6 23 43% 40 30.01 0.0
06 11:35 NW 7 G 16 10.00 Overcast OVC055 44.6 26.6 49% 41 30.01 0.0
06 11:15 N 6 10.00 Overcast OVC055 44.6 24.8 46% 42 30.01 0.0
06 10:55 NW 6 G 16 10.00 Overcast OVC049 42.8 24.8 49% 40 30.01 0.0
06 10:35 NW 10 G 20 10.00 Overcast OVC049 42.8 24.8 49% 38 30.01 0.0
06 10:15 N 8 10.00 Mostly Cloudy BKN049 42.8 23 46% 39 30.01 0.0
06 09:55 W 6 10.00 Partly Cloudy SCT047 SCT055 42.8 24.8 49% 40 30.02 0.0
06 09:35 W 9 10.00 Overcast OVC047 41 23 49% 36 30.02 0.0
06 09:15 W 7 10.00 Overcast OVC047 41 24.8 53% 37 30.02 0.0
06 08:55 W 8 10.00 Overcast OVC047 41 24.8 53% 36 30.01 0.0
06 08:35 W 5 10.00 Overcast OVC047 41 24.8 53% 38 30 0.0
06 08:15 W 6 10.00 Overcast OVC047 39.2 24.8 56% 36 30 0.0
06 07:55 W 6 10.00 Mostly Cloudy BKN047 37.4 26.6 65% 33 30 0.0
06 07:35 NW 5 10.00 Partly Cloudy SCT047 37.4 26.6 65% 34 29.99 0.0
06 07:15 NW 5 10.00 Fair CLR 37.4 26.6 65% 34 29.98 0.0
06 06:55 NW 5 10.00 Fair CLR 35.6 26.6 70% 32 29.98 0.0
06 06:35 NW 5 10.00 Fair CLR 33.8 26.6 75% 30 29.98 0.0
06 06:15 W 3 10.00 Fair CLR 35.6 26.6 70% 29.97 0.0
06 05:55 W 3 10.00 Fair CLR 33.8 28.4 81% 29.97 0.0
06 05:35 NW 5 10.00 Fair CLR 33.8 26.6 75% 30 29.95 0.0
06 05:15 W 3 10.00 Fair CLR 35.6 24.8 65% 29.95 0.0
06 04:55 W 3 10.00 Fair CLR 35.6 26.6 70% 29.95 0.0
06 04:35 NW 6 10.00 Fair CLR 35.6 26.6 70% 31 29.95 0.0
06 04:15 NW 6 10.00 Fair CLR 37.4 26.6 65% 33 29.94 0.0
06 03:55 W 6 10.00 Fair CLR 35.6 26.6 70% 31 29.94 0.0
06 03:35 NW 6 10.00 Fair CLR 35.6 26.6 70% 31 29.93 0.0
06 03:15 NW 6 10.00 Fair CLR 37.4 26.6 65% 33 29.93 0.0
06 02:55 NW 6 10.00 Fair CLR 37.4 26.6 65% 33 29.93 0.0
06 02:35 W 3 10.00 Fair CLR 41 26.6 57% 29.93 0.0
06 02:15 NW 5 10.00 Fair CLR 37.4 26.6 65% 34 29.92 0.0
06 01:55 NW 3 10.00 Fair CLR 41 26.6 57% 29.91 0.0
06 01:35 NW 8 10.00 Fair CLR 41 24.8 53% 36 29.91 0.0
06 01:15 NW 9 10.00 Fair CLR 41 26.6 57% 36 29.91 0.0
06 00:55 NW 8 10.00 Fair CLR 42.8 26.6 53% 39 29.91 0.0
06 00:35 NW 12 10.00 Fair CLR 42.8 26.6 53% 37 29.9 0.0
06 00:15 NW 8 10.00 Partly Cloudy SCT080 42.8 26.6 53% 39 29.9 0.0
05 23:55 W 6 10.00 Mostly Cloudy BKN080 44.6 26.6 49% 42 29.89 0.0
05 23:35 W 5 10.00 Overcast OVC080 44.6 26.6 49% 43 29.89 0.0
05 23:15 W 5 10.00 Overcast OVC080 46.4 24.8 43% 45 29.88 0.0
05 22:55 W 6 10.00 Overcast OVC090 46.4 24.8 43% 44 29.88 0.0
05 22:35 W 5 10.00 Overcast OVC090 46.4 24.8 43% 45 29.88 0.0
05 22:15 W 5 10.00 Overcast OVC090 46.4 24.8 43% 45 29.88 0.0
05 21:55 W 5 10.00 Overcast OVC090 46.4 24.8 43% 45 29.88 0.0
05 21:35 W 6 10.00 Overcast OVC090 46.4 24.8 43% 44 29.87 0.0
05 21:15 W 6 10.00 Overcast OVC090 46.4 24.8 43% 44 29.87 0.0
05 20:55 NW 6 10.00 Overcast OVC090 48.2 26.6 43% 46 29.86 0.0
05 20:35 NW 7 10.00 Overcast OVC090 48.2 24.8 40% 46 29.85 0.0
05 20:15 NW 7 10.00 Overcast OVC090 48.2 24.8 40% 46 29.85 0.0
05 19:55 NW 7 10.00 Overcast OVC090 48.2 23 37% 46 29.85 0.0
05 19:35 NW 7 10.00 Partly Cloudy SCT090 48.2 24.8 40% 46 29.84 0.0
05 19:15 W 6 G 9 10.00 Partly Cloudy SCT085 50 24.8 37% 48 29.84 0.0
05 18:55 NW 10 10.00 Mostly Cloudy BKN085 50 23 35% 46 29.84 0.0
05 18:35 W 9 10.00 Overcast OVC085 50 24.8 37% 47 29.84 0.0
05 18:15 NW 13 10.00 Overcast OVC085 50 23 35% 46 29.84 0.0
05 17:55 NW 10 10.00 Overcast OVC085 50 23 35% 46 29.84 0.0
05 17:35 NW 9 10.00 Overcast OVC085 51.8 23 32% 29.84 0.0
05 17:15 NW 12 10.00 Overcast OVC085 50 21.2 32% 46 29.84 0.0
05 16:55 NW 10 10.00 Overcast OVC085 50 21.2 32% 46 29.84 0.0
05 16:35 NW 12 G 20 10.00 Mostly Cloudy BKN085 50 21.2 32% 46 29.84 0.0
05 16:15 NW 14 G 22 10.00 Overcast OVC075 51.8 21.2 30% 29.84 0.0
05 15:55 NW 12 G 18 10.00 Mostly Cloudy BKN075 51.8 19.4 28% 29.84 0.0
05 15:35 W 12 G 18 10.00 Mostly Cloudy BKN075 53.6 21.2 28% 29.84 0.0
05 15:15 NW 10 G 20 10.00 Overcast OVC070 51.8 21.2 30% 29.84 0.0
05 14:55 W 12 G 22 10.00 Overcast OVC070 51.8 21.2 30% 29.85 0.0
05 14:35 NW 14 G 22 10.00 Overcast OVC070 51.8 21.2 30% 29.85 0.0
05 14:28 W 15 G 21 10.00 Overcast OVC070 51.8 21.2 30% 29.85 0.0
05 14:00 W 10 10.00 Overcast OVC070 53.6 21.2 28% 29.85 0.0
05 13:43 W 8 10.00 Mostly Cloudy BKN070 51.8 19.4 28% 29.85 0.0
05 13:26 W 12 10.00 Partly Cloudy SCT070 51.8 19.4 28% 29.84 0.0
05 13:03 NW 13 10.00 Partly Cloudy SCT070 50 19.4 30% 46 29.84 0.0
05 12:42 NW 16 10.00 Partly Cloudy SCT070 51.8 21.2 30% 29.84 0.0
05 12:22 NW 20 10.00 Partly Cloudy SCT070 50 19.4 30% 44 29.85 0.0
05 12:02 W 13 10.00 Mostly Cloudy BKN070 50 21.2 32% 46 29.85 0.0
05 11:22 NW 10 10.00 Partly Cloudy SCT070 50 21.2 32% 46 29.85 0.0
05 11:06 NW 13 10.00 Partly Cloudy SCT070 51.8 21.2 30% 29.85 0.0
05 10:46 NW 6 10.00 Fair CLR 50 21.2 32% 48 29.85 0.0
05 10:23 NW 9 10.00 Fair CLR 48.2 21.2 34% 45 29.84 0.0
05 10:02 N 13 10.00 Fair CLR 48.2 19.4 32% 43 29.84 0.0
05 09:30 N 9 10.00 Fair CLR 48.2 19.4 32% 45 29.84 0.0
05 09:02 NW 9 10.00 Fair CLR 46.4 19.4 34% 42 29.84 0.0
05 08:40 NW 13 10.00 Fair CLR 46.4 21.2 37% 41 29.84 0.0
05 08:23 NW 13 10.00 Fair CLR 44.6 21.2 39% 39 29.84 0.0
05 08:01 NW 9 10.00 Fair CLR 44.6 24.8 46% 40 29.83 0.0
05 07:40 NW 7 10.00 Fair CLR 42.8 26.6 53% 39 29.82 0.0
05 07:23 NW 7 10.00 Fair CLR 42.8 26.6 53% 39 29.81 0.0
05 07:01 W 7 10.00 Fair CLR 41 26.6 57% 37 0 0.0
05 06:41 W 6 10.00 Fair CLR 41 24.8 53% 38 29.78 0.0
05 06:22 W 5 10.00 Fair CLR 41 26.6 57% 38 29.78 0.0
05 06:01 W 6 10.00 Fair CLR 41 24.8 53% 38 29.77 0.0
05 05:42 W 7 10.00 Fair CLR 41 24.8 53% 37 29.77 0.0
05 05:23 NW 6 10.00 Fair CLR 39.2 26.6 61% 36 29.75 0.0
05 05:05 W 6 10.00 Fair CLR 41 24.8 53% 38 29.75 0.0
05 04:43 NW 6 10.00 Fair CLR 42.8 24.8 49% 40 29.75 0.0
05 04:25 NW 7 10.00 Fair CLR 42.8 24.8 49% 39 29.75 0.0
05 04:05 NW 8 10.00 Fair CLR 42.8 24.8 49% 39 29.74 0.0
05 03:45 W 8 10.00 Fair CLR 44.6 24.8 46% 41 29.73 0.0
05 03:25 W 8 10.00 Fair CLR 44.6 24.8 46% 41 29.72 0.0
05 03:05 W 6 10.00 Fair CLR 44.6 24.8 46% 42 29.72 0.0
05 02:29 NW 7 10.00 Fair CLR 44.6 26.6 49% 41 29.71 0.0
05 02:06 NW 6 10.00 Fair CLR 42.8 26.6 53% 40 29.71 0.0
05 01:50 NW 7 10.00 Fair CLR 46.4 24.8 43% 43 29.71 0.0
05 01:28 W 6 10.00 Fair CLR 46.4 24.8 43% 44 29.71 0.0
05 01:08 W 8 10.00 Fair CLR 46.4 24.8 43% 43 29.71 0.0
05 00:30 W 7 10.00 Fair CLR 46.4 24.8 43% 43 29.71 0.0
05 00:08 W 9 10.00 Fair CLR 46.4 24.8 43% 42 29.71 0.0
04 23:49 NW 7 10.00 Fair CLR 48.2 24.8 40% 46 29.71 0.0
Date Time (cdt) Wind (mph) Vis. (mi.) Weather Sky Cond. Air Dwpt Max. Min. Relative Humidity Wind Chill (°F) Heat Index (°F) altimeter (in) sea level (mb) 1 hr 3 hr 6 hr
6 hour
Temperature (ºF) Pressure Precipitation (in)